Berne, NY (12023)

3:08 PM EDT on August 30, 2015 (GMT -0400)
Berne - Fox Creek | | Change Station
CLOSE
Current Station
Personal Weather Station
Location: Berne, NY
Elevation: 991 ft
Nearby Weather Stations

Elev 991 ft 42.63 °N, 74.16 °W | Updated 16 seconds ago

Mostly Cloudy
Mostly Cloudy
85.0 °F
Feels Like 86 °F
N
2.1
Wind Variable Wind from North
Gusts 2.6 mph

Today
High -- | Low -- °F
--% Chance of Precip.
Yesterday
High -- | Low -- °F
Precip. -- in
6:19 AM 7:34 PM
Full, 98% visible
Pressure 30.04 in
Visibility 10.0 miles
Clouds Few 6000 ft
Few 8000 ft
Scattered Clouds 15000 ft
Mostly Cloudy 24000 ft
Heat Index 86 °F
Dew Point 63 °F
Humidity 47%
Rainfall in
Snow Depth Not available.
UV 4 out of 12
Pollen 9.20 out of 12
Air Quality Not available.
Flu Activity Not available.
METAR KALB 301851Z VRB03KT 10SM FEW060 FEW080 SCT150 BKN240 28/17 A3005 RMK AO2 SLP173 TCU DSNT SW T02830167 $
Pressure 30.04 in
Visibility 10.0 miles
Clouds Few 6000 ft
Few 8000 ft
Scattered Clouds 15000 ft
Mostly Cloudy 24000 ft
Heat Index 86 °F
Dew Point 63 °F
Humidity 47%
Rainfall in
Snow Depth Not available.
UV 4 out of 12
Pollen 9.20 out of 12
Air Quality Not available.
Flu Activity Not available.
METAR KALB 301851Z VRB03KT 10SM FEW060 FEW080 SCT150 BKN240 28/17 A3005 RMK AO2 SLP173 TCU DSNT SW T02830167 $

10-Day Weather Forecast

×

Almanac

Astronomy

Aug. 30, 2015 Rise Set
Actual Time
Civil Twilight
Nautical Twilight
Astronomical Twilight
Moon
Length of Visible Light
Length of Day
Tomorrow will be .
, % of the Moon is Illuminated

Today's Extremes

State Highs State Lows

Community

WunderPhotos

Upload Photos

1,851,035 photos uploaded!

WunderBlogs® & News

Nearby

Air Quality

  Air Quality AQ Index Pollutant
Not available.

Snow Depth

Station Depth Elevation

Earthquake Activity

City Distance Mag. Time & Date
Minimum magnitude displayed is 2.5.

Coastal Water Temperatures

Place Temperature

Stations

Nearby Weather Stations

Station Location Temp. Windchill Dew Point Humidity Wind Precip. Elev Updated Type